Bookmark and Share
Track history (hours):
 

Tor Viking

Last reported at 2014-Apr-24 00:23 UTC. Time now 2014-Apr-24 05:57 UTC.
Position N 58°01' W 000°52'.

Length 93 m; draft 6.8 m.

Type: Towing. MMSI: 266004000.

NotesDate/timePositionNaut miles runAvg speedWind from/ knotsBaromVisibWave heightAir tempDewpointWater temp
2014-Apr-24 00:23N 58°01' W 000°52'29 1.0
2014-Apr-22 20:33N 57°38' W 001°26'1110.9
2014-Apr-22 19:33N 57°30' W 001°39'4 3.9
2014-Apr-22 18:34N 57°30' W 001°46'9 9.4
2014-Apr-22 17:34N 57°34' W 001°31'34 3.4
2014-Apr-22 07:33N 57°52' W 000°37'1 0.9
2014-Apr-22 06:30N 57°51' W 000°39'2 2.6
2014-Apr-22 05:34N 57°49' W 000°41'18 3.3
2014-Apr-22 00:13N 57°40' W 001°09'3 5.0
2014-Apr-21 23:33N 57°38' W 001°15'5 5.2
2014-Apr-21 22:34N 57°36' W 001°23'5 5.2
2014-Apr-21 21:34N 57°33' W 001°31'5 5.2
2014-Apr-21 20:33N 57°30' W 001°39'4 3.7
2014-Apr-21 19:32N 57°30' W 001°46'0 0.0
2014-Apr-21 18:32N 57°30' W 001°46'0 0.0
2014-Apr-21 17:32N 57°30' W 001°46'0 0.0
2014-Apr-21 16:32N 57°30' W 001°46'0 0.0
2014-Apr-21 15:32N 57°30' W 001°46'0 0.0
2014-Apr-21 14:32N 57°30' W 001°46'0 0.0
2014-Apr-21 13:32N 57°30' W 001°46'0 0.0
2014-Apr-21 12:32N 57°30' W 001°46'0 0.0
2014-Apr-21 11:32N 57°30' W 001°46'0 0.0
2014-Apr-21 10:32N 57°30' W 001°46'0 0.0
2014-Apr-21 09:32N 57°30' W 001°46'0 0.0
2014-Apr-21 08:32N 57°30' W 001°46'0 0.0
2014-Apr-21 07:32N 57°30' W 001°46'0 0.0
2014-Apr-21 06:32N 57°30' W 001°46'2 2.4
2014-Apr-21 05:33N 57°28' W 001°44'5 5.3
2014-Apr-21 04:33N 57°23' W 001°44'5 4.6
2014-Apr-21 03:33N 57°18' W 001°45'4 4.3
2014-Apr-21 02:33N 57°14' W 001°46'4 3.6
2014-Apr-21 01:31N 57°10' W 001°47'4 4.1
2014-Apr-21 00:28N 57°06' W 001°48'9 4.7
2014-Apr-20 22:31N 56°57' W 001°53'22 5.5
2014-Apr-20 18:33N 56°42' W 002°22'  

Dump ship's entire track history

sailing weather and tide predictions

Tor Viking — SLJT — position and weather